createdAt,value
2018-03-28T00:02:21.256Z,93.20
2018-03-28T00:04:49.134Z,93.60
2018-03-28T00:07:17.050Z,93.40
2018-03-28T00:09:45.686Z,93.50
2018-03-28T00:12:13.576Z,93.50
2018-03-28T00:14:41.486Z,93.80
2018-03-28T00:17:09.417Z,93.80
2018-03-28T00:19:37.378Z,93.90
2018-03-28T00:22:05.369Z,93.90
2018-03-28T00:24:34.015Z,94.20
2018-03-28T00:27:01.883Z,94.20
2018-03-28T00:29:29.865Z,94.20
2018-03-28T00:31:57.762Z,94.20
2018-03-28T00:34:26.412Z,93.90
2018-03-28T00:36:54.294Z,93.90
2018-03-28T00:39:23.040Z,93.50
2018-03-28T00:41:50.972Z,93.50
2018-03-28T00:44:18.886Z,93.80
2018-03-28T00:46:46.804Z,93.70
2018-03-28T00:49:15.517Z,93.50
2018-03-28T00:51:43.422Z,93.50
2018-03-28T00:54:11.294Z,93.40
2018-03-28T00:56:39.166Z,93.60
2018-03-28T00:59:07.051Z,93.50
2018-03-28T01:01:35.667Z,93.70
2018-03-28T01:04:03.561Z,93.70
2018-03-28T01:06:31.497Z,93.70
2018-03-28T01:08:59.360Z,93.60
2018-03-28T01:11:27.237Z,93.60
2018-03-28T01:13:55.125Z,93.60
2018-03-28T01:16:23.022Z,93.40
2018-03-28T01:18:51.672Z,93.20
2018-03-28T01:21:19.609Z,93.20
2018-03-28T01:23:47.493Z,92.80
2018-03-28T01:26:15.390Z,92.60
2018-03-28T01:28:43.373Z,92.50
2018-03-28T01:31:12.070Z,92.40
2018-03-28T01:33:40.038Z,92.40
2018-03-28T01:36:08.700Z,92.20
2018-03-28T01:38:36.631Z,92.20
2018-03-28T01:41:04.636Z,92.30
2018-03-28T01:43:32.501Z,92.60
2018-03-28T01:46:00.454Z,92.80
2018-03-28T01:48:28.337Z,92.50
2018-03-28T01:50:56.355Z,92.40
2018-03-28T01:53:24.359Z,92.30
2018-03-28T01:55:52.225Z,92.30
2018-03-28T01:58:20.141Z,92.20
2018-03-28T02:00:48.836Z,91.90
2018-03-28T02:03:16.743Z,91.90
2018-03-28T02:05:44.680Z,91.90
2018-03-28T02:08:12.578Z,91.80
2018-03-28T02:10:40.492Z,91.80
2018-03-28T02:13:08.434Z,91.70
2018-03-28T02:15:36.411Z,91.60
2018-03-28T02:18:05.113Z,91.10
2018-03-28T02:20:33.751Z,91.00
2018-03-28T02:23:01.633Z,91.00
2018-03-28T02:25:29.538Z,90.70
2018-03-28T02:27:57.427Z,90.80
2018-03-28T02:30:25.385Z,90.50
2018-03-28T02:32:53.278Z,90.10
2018-03-28T02:35:21.246Z,90.10
2018-03-28T02:37:49.117Z,90.00
2018-03-28T02:40:17.084Z,89.20
2018-03-28T02:42:45.017Z,89.60
2018-03-28T02:45:12.945Z,88.20
2018-03-28T02:47:40.875Z,87.90
2018-03-28T02:50:08.833Z,87.80
2018-03-28T02:52:36.768Z,87.20
2018-03-28T02:55:05.384Z,86.30
2018-03-28T02:57:33.289Z,86.30
2018-03-28T03:00:01.172Z,86.60
2018-03-28T03:02:29.843Z,86.30
2018-03-28T03:04:57.709Z,86.20
2018-03-28T03:07:25.620Z,85.90
2018-03-28T03:09:53.541Z,86.40
2018-03-28T03:12:21.424Z,85.30
2018-03-28T03:14:50.053Z,85.70
2018-03-28T03:17:17.943Z,85.60
2018-03-28T03:19:45.787Z,85.40
2018-03-28T03:22:13.657Z,85.50
2018-03-28T03:24:41.507Z,85.30
2018-03-28T03:27:09.341Z,85.80
2018-03-28T03:29:37.982Z,85.70
2018-03-28T03:32:05.844Z,85.60
2018-03-28T03:34:33.749Z,86.10
2018-03-28T03:37:01.725Z,86.70
2018-03-28T03:39:29.608Z,86.70
2018-03-28T03:41:57.558Z,86.70
2018-03-28T03:44:26.191Z,87.00
2018-03-28T03:46:54.092Z,87.00
2018-03-28T03:49:21.915Z,87.20
2018-03-28T03:51:49.692Z,86.80
2018-03-28T03:54:17.619Z,86.50
2018-03-28T03:56:46.182Z,87.40
2018-03-28T03:59:14.059Z,87.40
2018-03-28T04:01:42.630Z,88.30
2018-03-28T04:04:10.479Z,88.20
2018-03-28T04:06:38.266Z,91.10
2018-03-28T04:09:06.860Z,89.50
2018-03-28T04:11:35.415Z,90.10
2018-03-28T04:14:03.217Z,90.10
2018-03-28T04:16:31.031Z,90.30
2018-03-28T04:18:58.881Z,90.40
2018-03-28T04:21:26.690Z,90.10
2018-03-28T04:23:55.246Z,88.40
2018-03-28T04:26:23.025Z,88.40
2018-03-28T04:28:50.841Z,88.90
2018-03-28T04:31:18.670Z,88.10
2018-03-28T04:33:47.305Z,88.60
2018-03-28T04:36:15.192Z,88.60
2018-03-28T04:38:44.318Z,90.70
2018-03-28T04:41:12.945Z,90.20
2018-03-28T04:43:41.049Z,90.10
2018-03-28T04:46:09.229Z,88.70
2018-03-28T04:48:37.290Z,91.60
2018-03-28T04:51:05.231Z,88.30
2018-03-28T04:53:33.226Z,88.80
2018-03-28T04:56:01.386Z,89.20
2018-03-28T04:58:29.575Z,89.30
2018-03-28T05:00:57.548Z,88.80
2018-03-28T05:03:25.399Z,89.40
2018-03-28T05:05:53.404Z,89.50
2018-03-28T05:08:22.115Z,90.10
2018-03-28T05:10:50.041Z,90.10
2018-03-28T05:13:17.883Z,90.40
2018-03-28T05:15:45.756Z,90.70
2018-03-28T05:18:13.639Z,90.70
2018-03-28T05:20:41.520Z,90.40
2018-03-28T05:23:10.120Z,90.70
2018-03-28T05:25:38.023Z,90.70
2018-03-28T05:28:05.904Z,92.60
2018-03-28T05:31:04.382Z,91.00
2018-03-28T05:33:52.378Z,90.30
2018-03-28T05:36:20.366Z,90.50
2018-03-28T05:38:48.371Z,96.00
2018-03-28T05:41:16.233Z,90.90
2018-03-28T05:43:44.196Z,92.10
2018-03-28T05:46:12.177Z,93.10
2018-03-28T05:48:40.158Z,90.40
2018-03-28T05:51:08.861Z,94.40
2018-03-28T05:53:36.793Z,94.40
2018-03-28T05:56:04.662Z,91.20
2018-03-28T05:58:32.632Z,91.00
2018-03-28T06:01:00.622Z,91.30
2018-03-28T06:03:29.286Z,90.70
2018-03-28T06:05:57.151Z,90.70
2018-03-28T06:08:25.127Z,90.70
2018-03-28T06:10:53.954Z,90.00
2018-03-28T06:13:21.919Z,90.00
2018-03-28T06:15:49.842Z,89.40
2018-03-28T06:18:17.734Z,88.70
2018-03-28T06:20:46.363Z,88.50
2018-03-28T06:23:14.330Z,88.50
2018-03-28T06:25:42.176Z,88.10
2018-03-28T06:28:10.062Z,88.20
2018-03-28T06:30:37.984Z,88.10
2018-03-28T06:33:06.577Z,85.00
2018-03-28T06:35:34.507Z,85.00
2018-03-28T06:38:02.380Z,83.20
2018-03-28T06:40:30.175Z,78.60
2018-03-28T06:42:58.829Z,73.10
2018-03-28T06:45:27.570Z,73.10
2018-03-28T06:47:55.378Z,71.30
2018-03-28T06:50:23.195Z,70.40
2018-03-28T06:55:25.293Z,67.90
2018-03-28T06:57:53.272Z,70.40
2018-03-28T07:00:21.098Z,63.90
2018-03-28T07:02:48.963Z,66.70
2018-03-28T07:05:16.924Z,58.70
2018-03-28T07:07:45.621Z,54.40
2018-03-28T07:10:13.621Z,53.80
2018-03-28T07:12:41.652Z,50.90
2018-03-28T07:15:10.607Z,46.90
2018-03-28T07:17:38.475Z,46.70
2018-03-28T07:20:06.284Z,48.70
2018-03-28T07:22:34.059Z,49.30
2018-03-28T07:25:01.961Z,46.80
2018-03-28T07:27:29.850Z,44.30
2018-03-28T07:29:58.478Z,40.80
2018-03-28T07:32:26.380Z,40.70
2018-03-28T07:34:54.159Z,38.80
2018-03-28T07:37:22.064Z,39.70
2018-03-28T07:39:49.929Z,38.00
2018-03-28T07:42:17.779Z,37.60
2018-03-28T07:44:46.440Z,37.50
2018-03-28T07:47:14.330Z,37.50
2018-03-28T07:49:42.892Z,38.20
2018-03-28T07:52:10.696Z,38.30
2018-03-28T07:54:38.716Z,38.30
2018-03-28T07:57:06.599Z,38.70
2018-03-28T07:59:35.386Z,38.20
2018-03-28T08:02:03.971Z,40.20
2018-03-28T08:04:32.522Z,41.00
2018-03-28T08:07:00.392Z,40.90
2018-03-28T08:09:28.256Z,41.30
2018-03-28T08:11:56.100Z,40.70
2018-03-28T08:14:23.945Z,40.80
2018-03-28T08:16:51.783Z,40.60
2018-03-28T08:19:22.855Z,42.90
2018-03-28T08:21:50.754Z,43.50
2018-03-28T08:24:18.627Z,42.60
2018-03-28T08:26:46.493Z,42.10
2018-03-28T08:29:14.268Z,43.70
2018-03-28T08:31:42.166Z,41.40
2018-03-28T08:34:10.691Z,44.00
2018-03-28T08:36:38.613Z,44.00
2018-03-28T08:39:07.184Z,44.20
2018-03-28T08:41:35.782Z,41.80
2018-03-28T08:44:04.407Z,43.00
2018-03-28T08:46:32.284Z,43.00
2018-03-28T08:49:00.202Z,41.80
2018-03-28T08:51:28.101Z,41.70
2018-03-28T08:53:55.911Z,40.70
2018-03-28T08:56:24.496Z,41.50
2018-03-28T08:58:53.187Z,42.40
2018-03-28T09:01:21.898Z,41.30
2018-03-28T09:03:49.890Z,41.20
2018-03-28T09:06:17.758Z,40.90
2018-03-28T09:08:45.574Z,42.40
2018-03-28T09:11:14.257Z,41.90
2018-03-28T09:13:42.891Z,42.30
2018-03-28T09:16:11.008Z,42.30
2018-03-28T09:18:39.668Z,41.20
2018-03-28T09:21:07.592Z,41.20
2018-03-28T09:23:35.565Z,41.30
2018-03-28T09:26:03.478Z,42.90
2018-03-28T09:28:32.242Z,46.50
2018-03-28T09:31:00.186Z,46.40
2018-03-28T09:33:27.963Z,44.70
2018-03-28T09:35:55.800Z,44.80
2018-03-28T09:38:23.683Z,44.20
2018-03-28T09:40:51.512Z,43.80
2018-03-28T09:43:20.046Z,42.40
2018-03-28T09:45:47.833Z,42.30
2018-03-28T09:48:15.690Z,46.30
2018-03-28T09:50:43.563Z,48.70
2018-03-28T09:53:11.402Z,48.00
2018-03-28T09:55:39.338Z,48.60
2018-03-28T09:58:07.103Z,48.80
2018-03-28T10:00:34.956Z,47.00
2018-03-28T10:03:09.244Z,45.60
2018-03-28T10:05:39.060Z,45.60
2018-03-28T10:08:07.003Z,43.70
2018-03-28T10:10:34.814Z,43.50
2018-03-28T10:13:03.443Z,42.00
2018-03-28T10:15:31.266Z,42.00
2018-03-28T10:17:59.823Z,41.40
2018-03-28T10:20:27.613Z,41.40
2018-03-28T10:22:56.166Z,44.10
2018-03-28T10:25:23.973Z,44.10
2018-03-28T10:27:51.749Z,45.40
2018-03-28T10:30:19.525Z,46.40
2018-03-28T10:32:48.351Z,49.00
2018-03-28T10:35:16.212Z,45.60
2018-03-28T10:37:44.072Z,43.40
2018-03-28T10:40:11.875Z,42.30
2018-03-28T10:42:40.580Z,44.10
2018-03-28T10:45:08.436Z,44.10
2018-03-28T10:47:36.212Z,42.20
2018-03-28T10:50:04.060Z,42.00
2018-03-28T10:52:32.684Z,40.00
2018-03-28T10:55:00.472Z,40.00
2018-03-28T10:57:28.236Z,38.90
2018-03-28T10:59:56.123Z,38.30
2018-03-28T11:02:24.807Z,36.90
2018-03-28T11:04:53.521Z,37.50
2018-03-28T11:07:21.395Z,37.50
2018-03-28T11:09:49.191Z,40.10
2018-03-28T11:12:17.003Z,40.00
2018-03-28T11:14:45.589Z,38.20
2018-03-28T11:17:13.414Z,38.20
2018-03-28T11:19:41.240Z,38.70
2018-03-28T11:22:09.202Z,37.90
2018-03-28T11:24:37.135Z,36.80
2018-03-28T11:27:05.745Z,37.00
2018-03-28T11:29:33.798Z,37.00
2018-03-28T11:32:02.338Z,36.30
2018-03-28T11:34:30.153Z,36.30
2018-03-28T11:36:57.930Z,42.00
2018-03-28T11:39:25.735Z,42.40
2018-03-28T11:41:53.507Z,43.50
2018-03-28T11:44:21.296Z,47.20
2018-03-28T11:46:49.847Z,47.30
2018-03-28T11:49:17.612Z,47.20
2018-03-28T11:51:45.425Z,46.10
2018-03-28T11:54:13.935Z,45.00
2018-03-28T11:56:41.724Z,44.90
2018-03-28T11:59:09.499Z,41.60
2018-03-28T12:01:37.280Z,41.30
2018-03-28T12:04:05.795Z,39.60
2018-03-28T12:06:33.656Z,39.50
2018-03-28T12:09:01.445Z,38.30
2018-03-28T12:11:29.271Z,37.70
2018-03-28T12:13:57.032Z,40.10
2018-03-28T12:16:24.795Z,39.20
2018-03-28T12:18:52.534Z,39.20
2018-03-28T12:21:20.303Z,39.90
2018-03-28T12:23:48.852Z,38.90
2018-03-28T12:26:16.635Z,38.90
2018-03-28T12:28:44.387Z,44.50
2018-03-28T12:31:12.234Z,45.50
2018-03-28T12:33:40.031Z,47.50
2018-03-28T12:36:07.902Z,46.50
2018-03-28T12:38:35.795Z,45.60
2018-03-28T12:41:03.575Z,44.80
2018-03-28T12:43:31.404Z,48.50
2018-03-28T12:45:59.947Z,49.70
2018-03-28T12:48:27.731Z,49.60
2018-03-28T12:50:55.492Z,49.10
2018-03-28T12:53:23.277Z,49.50
2018-03-28T12:55:51.828Z,49.80
2018-03-28T12:58:19.610Z,49.70
2018-03-28T13:00:47.378Z,49.30
2018-03-28T13:03:15.186Z,46.60
2018-03-28T13:05:43.014Z,47.60
2018-03-28T13:08:11.542Z,51.40
2018-03-28T13:10:39.286Z,51.30
2018-03-28T13:13:07.063Z,52.70
2018-03-28T13:15:34.831Z,53.70
2018-03-28T13:18:02.599Z,51.20
2018-03-28T13:20:30.368Z,50.00
2018-03-28T13:22:58.205Z,48.80
2018-03-28T13:25:25.981Z,52.30
2018-03-28T13:28:03.474Z,55.40
2018-03-28T13:30:33.017Z,55.20
2018-03-28T13:33:03.620Z,54.10
2018-03-28T13:35:38.144Z,52.70
2018-03-28T13:38:12.902Z,52.70
2018-03-28T13:40:44.575Z,50.30
2018-03-28T13:43:13.136Z,53.20
2018-03-28T13:45:46.101Z,53.20
2018-03-28T13:48:18.813Z,55.60
2018-03-28T13:50:51.567Z,56.10
2018-03-28T13:53:24.362Z,56.50
2018-03-28T13:55:52.232Z,53.90
2018-03-28T13:58:20.032Z,52.10
2018-03-28T14:00:47.862Z,51.90
2018-03-28T14:03:15.628Z,50.90
2018-03-28T14:05:43.453Z,48.20
2018-03-28T14:08:11.245Z,48.20
2018-03-28T14:10:39.043Z,46.40
2018-03-28T14:13:06.849Z,46.60
2018-03-28T14:15:34.661Z,47.70
2018-03-28T14:18:03.231Z,46.50
2018-03-28T14:20:31.004Z,46.40
2018-03-28T14:22:58.780Z,45.60
2018-03-28T14:25:27.332Z,45.10
2018-03-28T14:27:55.094Z,45.10
2018-03-28T14:30:22.891Z,44.20
2018-03-28T14:32:51.436Z,45.70
2018-03-28T14:35:19.202Z,45.60
2018-03-28T14:37:47.779Z,46.80
2018-03-28T14:40:15.615Z,46.90
2018-03-28T14:42:54.586Z,47.00
2018-03-28T14:45:11.369Z,44.70
2018-03-28T14:47:39.272Z,44.60
2018-03-28T14:50:07.937Z,46.90
2018-03-28T14:52:35.703Z,46.90
2018-03-28T14:55:03.540Z,47.20
2018-03-28T14:57:31.400Z,43.20
2018-03-28T14:59:59.174Z,45.80
2018-03-28T15:02:27.708Z,47.40
2018-03-28T15:04:56.257Z,47.10
2018-03-28T15:07:24.046Z,47.10
2018-03-28T15:09:52.599Z,46.30
2018-03-28T15:12:20.386Z,46.30
2018-03-28T15:14:48.185Z,48.30
2018-03-28T15:17:15.995Z,48.10
2018-03-28T15:19:43.768Z,47.30
2018-03-28T15:22:11.551Z,48.00
2018-03-28T15:24:40.118Z,45.60
2018-03-28T15:27:07.939Z,45.50
2018-03-28T15:29:35.734Z,48.30
2018-03-28T15:32:03.576Z,48.70
2018-03-28T15:34:31.346Z,51.90
2018-03-28T15:36:59.128Z,50.10
2018-03-28T15:39:26.959Z,49.50
2018-03-28T15:41:55.540Z,47.70
2018-03-28T15:44:23.358Z,47.60
2018-03-28T15:46:51.923Z,48.90
2018-03-28T15:49:21.215Z,50.90
2018-03-28T15:51:49.075Z,50.90
2018-03-28T15:54:16.863Z,51.40
2018-03-28T15:56:44.622Z,51.70
2018-03-28T15:59:12.435Z,50.30
2018-03-28T16:01:40.216Z,52.30
2018-03-28T16:04:08.011Z,53.20
2018-03-28T16:06:35.790Z,53.00
2018-03-28T16:09:03.711Z,51.50
2018-03-28T16:11:31.625Z,53.60
2018-03-28T16:13:59.446Z,56.80
2018-03-28T16:16:27.203Z,58.50
2018-03-28T16:18:55.060Z,57.20
2018-03-28T16:21:22.834Z,58.00
2018-03-28T16:23:50.634Z,58.90
2018-03-28T16:26:18.449Z,59.60
2018-03-28T16:28:46.243Z,62.20
2018-03-28T16:31:14.888Z,61.50
2018-03-28T16:33:42.651Z,61.50
2018-03-28T16:36:11.200Z,63.00
2018-03-28T16:38:39.021Z,63.50
2018-03-28T16:41:06.774Z,61.80
2018-03-28T16:43:34.587Z,62.10
2018-03-28T16:46:02.345Z,64.20
2018-03-28T16:48:30.212Z,65.40
2018-03-28T16:50:58.005Z,64.50
2018-03-28T16:53:26.548Z,64.00
2018-03-28T16:55:54.390Z,63.90
2018-03-28T16:58:22.199Z,66.40
2018-03-28T17:00:50.007Z,64.40
2018-03-28T17:03:17.855Z,66.10
2018-03-28T17:05:46.433Z,66.70
2018-03-28T17:08:15.078Z,65.90
2018-03-28T17:10:42.875Z,65.80
2018-03-28T17:13:11.471Z,66.90
2018-03-28T17:15:40.067Z,69.00
2018-03-28T17:18:07.883Z,68.80
2018-03-28T17:20:35.688Z,68.10
2018-03-28T17:23:03.488Z,72.10
2018-03-28T17:25:31.276Z,68.50
2018-03-28T17:27:59.074Z,72.30
2018-03-28T17:30:27.647Z,69.00
2018-03-28T17:32:56.331Z,69.10
2018-03-28T17:35:24.883Z,72.30
2018-03-28T17:37:52.720Z,72.70
2018-03-28T17:40:20.514Z,69.30
2018-03-28T17:42:48.380Z,71.00
2018-03-28T17:45:16.193Z,67.40
2018-03-28T17:47:44.031Z,68.70
2018-03-28T17:50:11.878Z,66.80
2018-03-28T17:52:39.668Z,66.40
2018-03-28T17:55:08.227Z,66.60
2018-03-28T17:57:35.984Z,66.50
2018-03-28T18:00:03.958Z,65.90
2018-03-28T18:02:31.799Z,65.70
2018-03-28T18:04:59.578Z,66.50
2018-03-28T18:07:27.443Z,66.90
2018-03-28T18:09:55.375Z,66.70
2018-03-28T18:12:23.185Z,67.50
2018-03-28T18:14:50.996Z,67.50
2018-03-28T18:17:18.779Z,67.60
2018-03-28T18:19:46.578Z,67.40
2018-03-28T18:22:14.432Z,67.70
2018-03-28T18:24:42.270Z,68.20
2018-03-28T18:27:10.134Z,69.10
2018-03-28T18:29:38.012Z,70.80
2018-03-28T18:32:05.850Z,71.20
2018-03-28T18:34:33.665Z,71.70
2018-03-28T18:37:01.623Z,74.00
2018-03-28T18:39:30.268Z,75.40
2018-03-28T18:41:58.063Z,75.30
2018-03-28T18:44:25.862Z,75.40
2018-03-28T18:46:53.672Z,76.20
2018-03-28T18:49:21.492Z,75.90
2018-03-28T18:51:49.283Z,76.30
2018-03-28T18:54:17.148Z,79.00
2018-03-28T18:56:45.742Z,84.70
2018-03-28T18:59:13.540Z,84.40
2018-03-28T19:01:41.600Z,85.50
2018-03-28T19:04:09.403Z,80.20
2018-03-28T19:06:37.265Z,80.80
2018-03-28T19:09:05.152Z,82.40
2018-03-28T19:11:33.820Z,86.90
2018-03-28T19:14:01.622Z,87.10
2018-03-28T19:16:29.402Z,81.80
2018-03-28T19:18:57.170Z,85.00
2018-03-28T19:21:25.031Z,87.50
2018-03-28T19:23:52.886Z,85.70
2018-03-28T19:26:20.701Z,85.10
2018-03-28T19:28:48.524Z,90.70
2018-03-28T19:31:16.426Z,91.10
2018-03-28T19:33:44.252Z,85.50
2018-03-28T19:36:12.031Z,88.30
2018-03-28T19:38:39.917Z,87.80
2018-03-28T19:41:08.464Z,87.90
2018-03-28T19:43:36.282Z,88.00
2018-03-28T19:46:04.165Z,90.90
2018-03-28T19:48:32.833Z,87.80
2018-03-28T19:51:00.740Z,87.70
2018-03-28T19:53:28.620Z,87.70
2018-03-28T19:55:56.528Z,90.50
2018-03-28T19:58:24.397Z,92.20
2018-03-28T20:00:52.433Z,90.00
2018-03-28T20:03:20.292Z,90.70
2018-03-28T20:05:48.218Z,91.10
2018-03-28T20:08:16.781Z,89.10
2018-03-28T20:10:44.613Z,89.20
2018-03-28T20:13:12.478Z,89.10
2018-03-28T20:15:40.404Z,88.10
2018-03-28T20:18:08.996Z,88.10
2018-03-28T20:20:37.600Z,89.30
2018-03-28T20:23:05.503Z,89.30
2018-03-28T20:25:33.294Z,89.10
2018-03-28T20:28:01.895Z,90.00
2018-03-28T20:30:29.741Z,89.20
2018-03-28T20:33:00.012Z,88.80
2018-03-28T20:35:27.973Z,88.80
2018-03-28T20:37:56.143Z,88.20
2018-03-28T20:40:24.162Z,88.70
2018-03-28T20:42:52.142Z,89.10
2018-03-28T20:45:21.001Z,88.00
2018-03-28T20:47:49.128Z,88.00
2018-03-28T20:50:17.142Z,87.90
2018-03-28T20:52:45.223Z,89.10
2018-03-28T20:55:13.088Z,88.40
2018-03-28T20:57:47.889Z,89.50
2018-03-28T21:00:15.685Z,90.10
2018-03-28T21:02:43.484Z,89.30
2018-03-28T21:05:11.318Z,90.10
2018-03-28T21:07:39.282Z,89.90
2018-03-28T21:10:07.963Z,90.30
2018-03-28T21:12:35.778Z,90.50
2018-03-28T21:15:03.683Z,90.30
2018-03-28T21:17:31.517Z,90.30
2018-03-28T21:19:59.318Z,90.00
2018-03-28T21:22:27.132Z,90.40
2018-03-28T21:24:55.736Z,90.50
2018-03-28T21:27:23.524Z,90.50
2018-03-28T21:29:51.454Z,90.20
2018-03-28T21:32:19.344Z,90.10
2018-03-28T21:34:47.147Z,90.00
2018-03-28T21:37:15.024Z,90.40
2018-03-28T21:39:43.603Z,90.10
2018-03-28T21:42:12.278Z,90.10
2018-03-28T21:44:40.055Z,90.80
2018-03-28T21:47:08.616Z,88.90
2018-03-28T21:49:36.572Z,88.90
2018-03-28T21:52:04.443Z,89.40
2018-03-28T21:54:33.722Z,90.10
2018-03-28T21:57:01.514Z,89.80
2018-03-28T21:59:29.551Z,90.00
2018-03-28T22:01:57.311Z,89.50
2018-03-28T22:04:25.110Z,89.50
2018-03-28T22:06:52.852Z,89.10
2018-03-28T22:09:20.683Z,89.60
2018-03-28T22:11:48.477Z,89.90
2018-03-28T22:14:16.293Z,89.90
2018-03-28T22:16:44.893Z,90.10
2018-03-28T22:19:12.728Z,90.00
2018-03-28T22:21:40.503Z,90.10
2018-03-28T22:24:09.269Z,90.30
2018-03-28T22:26:37.130Z,90.30
2018-03-28T22:29:04.998Z,90.10
2018-03-28T22:31:32.805Z,90.30
2018-03-28T22:34:01.343Z,90.20
2018-03-28T22:36:29.104Z,90.20
2018-03-28T22:38:56.974Z,90.30
2018-03-28T22:41:24.840Z,90.30
2018-03-28T22:43:52.704Z,90.20
2018-03-28T22:46:20.571Z,90.20
2018-03-28T22:48:48.346Z,90.60
2018-03-28T22:51:16.143Z,90.80
2018-03-28T22:53:43.927Z,91.10
2018-03-28T22:56:11.745Z,91.20
2018-03-28T22:58:40.412Z,91.30
2018-03-28T23:01:08.209Z,91.20
2018-03-28T23:03:36.770Z,90.80
2018-03-28T23:06:04.731Z,90.80
2018-03-28T23:08:32.598Z,91.10
2018-03-28T23:11:00.564Z,91.10
2018-03-28T23:13:28.427Z,91.20
2018-03-28T23:15:56.295Z,91.10
2018-03-28T23:18:24.261Z,91.30
2018-03-28T23:20:52.145Z,91.20
2018-03-28T23:23:19.944Z,91.10
2018-03-28T23:25:47.839Z,91.10
2018-03-28T23:28:15.693Z,91.10
2018-03-28T23:30:43.592Z,91.20
2018-03-28T23:33:11.416Z,91.20
2018-03-28T23:35:39.329Z,91.30
2018-03-28T23:38:07.149Z,91.60
2018-03-28T23:40:35.055Z,91.50
2018-03-28T23:43:02.924Z,91.50
2018-03-28T23:45:30.891Z,91.60
2018-03-28T23:47:58.755Z,91.60
2018-03-28T23:50:26.624Z,91.60
2018-03-28T23:52:54.490Z,91.60
2018-03-28T23:55:22.256Z,91.40
2018-03-28T23:57:50.039Z,91.90
